sensor_id;sensor_type;location;lat;lon;timestamp;P1;durP1;ratioP1;P2;durP2;ratioP2
18881;SDS011;9573;50.948;11.600;2022-12-10T05:22:39;51.20;;;15.13;;
18881;SDS011;9573;50.948;11.600;2022-12-10T05:25:23;50.17;;;16.07;;
18881;SDS011;9573;50.948;11.600;2022-12-10T05:27:50;50.03;;;16.80;;
18881;SDS011;9573;50.948;11.600;2022-12-10T05:30:18;51.30;;;15.97;;
18881;SDS011;9573;50.948;11.600;2022-12-10T05:32:45;45.90;;;16.03;;
18881;SDS011;9573;50.948;11.600;2022-12-10T05:35:12;45.50;;;15.10;;
18881;SDS011;9573;50.948;11.600;2022-12-10T05:37:41;48.70;;;15.67;;
18881;SDS011;9573;50.948;11.600;2022-12-10T05:40:08;42.60;;;14.03;;
18881;SDS011;9573;50.948;11.600;2022-12-10T05:42:37;44.67;;;15.70;;
18881;SDS011;9573;50.948;11.600;2022-12-10T05:45:04;47.27;;;15.73;;
18881;SDS011;9573;50.948;11.600;2022-12-10T05:47:32;44.63;;;14.60;;
18881;SDS011;9573;50.948;11.600;2022-12-10T05:50:00;47.53;;;16.10;;
18881;SDS011;9573;50.948;11.600;2022-12-10T05:52:27;44.80;;;15.90;;
18881;SDS011;9573;50.948;11.600;2022-12-10T05:54:55;44.20;;;15.50;;
18881;SDS011;9573;50.948;11.600;2022-12-10T05:57:22;42.97;;;14.60;;
18881;SDS011;9573;50.948;11.600;2022-12-10T05:59:52;44.73;;;14.87;;
18881;SDS011;9573;50.948;11.600;2022-12-10T06:02:19;44.63;;;14.47;;
18881;SDS011;9573;50.948;11.600;2022-12-10T06:04:46;45.17;;;14.50;;
18881;SDS011;9573;50.948;11.600;2022-12-10T06:07:13;43.07;;;15.23;;
18881;SDS011;9573;50.948;11.600;2022-12-10T06:09:40;43.87;;;14.80;;
18881;SDS011;9573;50.948;11.600;2022-12-10T06:12:11;46.80;;;15.07;;
18881;SDS011;9573;50.948;11.600;2022-12-10T06:14:38;45.93;;;15.47;;
18881;SDS011;9573;50.948;11.600;2022-12-10T06:17:05;48.97;;;16.33;;
18881;SDS011;9573;50.948;11.600;2022-12-10T06:19:32;45.17;;;15.40;;
18881;SDS011;9573;50.948;11.600;2022-12-10T06:22:02;49.17;;;16.67;;
18881;SDS011;9573;50.948;11.600;2022-12-10T06:24:29;46.53;;;15.77;;
18881;SDS011;9573;50.948;11.600;2022-12-10T06:26:56;48.73;;;15.80;;
18881;SDS011;9573;50.948;11.600;2022-12-10T06:29:25;46.93;;;15.67;;
18881;SDS011;9573;50.948;11.600;2022-12-10T06:31:52;49.37;;;15.90;;
18881;SDS011;9573;50.948;11.600;2022-12-10T06:34:19;50.17;;;16.83;;
18881;SDS011;9573;50.948;11.600;2022-12-10T06:36:46;49.40;;;15.30;;
18881;SDS011;9573;50.948;11.600;2022-12-10T06:39:13;48.97;;;16.07;;
18881;SDS011;9573;50.948;11.600;2022-12-10T06:41:40;50.03;;;16.47;;
18881;SDS011;9573;50.948;11.600;2022-12-10T06:44:09;52.57;;;16.97;;
18881;SDS011;9573;50.948;11.600;2022-12-10T06:46:38;50.67;;;17.60;;
18881;SDS011;9573;50.948;11.600;2022-12-10T06:49:06;47.93;;;16.40;;
18881;SDS011;9573;50.948;11.600;2022-12-10T06:51:34;50.40;;;18.37;;
18881;SDS011;9573;50.948;11.600;2022-12-10T06:54:03;49.80;;;18.17;;
18881;SDS011;9573;50.948;11.600;2022-12-10T06:56:31;52.30;;;17.23;;
18881;SDS011;9573;50.948;11.600;2022-12-10T06:58:58;49.53;;;16.97;;
18881;SDS011;9573;50.948;11.600;2022-12-10T07:01:28;47.47;;;16.40;;
18881;SDS011;9573;50.948;11.600;2022-12-10T07:03:59;53.13;;;16.67;;
18881;SDS011;9573;50.948;11.600;2022-12-10T07:06:27;49.43;;;17.60;;
18881;SDS011;9573;50.948;11.600;2022-12-10T07:08:58;48.10;;;17.20;;
18881;SDS011;9573;50.948;11.600;2022-12-10T07:11:25;47.90;;;16.53;;
18881;SDS011;9573;50.948;11.600;2022-12-10T07:13:52;51.20;;;16.83;;
18881;SDS011;9573;50.948;11.600;2022-12-10T07:16:23;46.67;;;14.97;;
18881;SDS011;9573;50.948;11.600;2022-12-10T07:18:57;54.33;;;18.30;;
18881;SDS011;9573;50.948;11.600;2022-12-10T07:21:28;50.93;;;18.10;;
18881;SDS011;9573;50.948;11.600;2022-12-10T07:23:58;51.53;;;18.27;;
18881;SDS011;9573;50.948;11.600;2022-12-10T07:26:28;51.80;;;17.50;;
18881;SDS011;9573;50.948;11.600;2022-12-10T07:28:58;48.53;;;17.07;;
18881;SDS011;9573;50.948;11.600;2022-12-10T07:31:26;51.17;;;16.77;;
18881;SDS011;9573;50.948;11.600;2022-12-10T07:33:53;47.30;;;15.13;;
18881;SDS011;9573;50.948;11.600;2022-12-10T07:36:24;48.00;;;15.90;;
18881;SDS011;9573;50.948;11.600;2022-12-10T07:38:54;46.80;;;15.63;;
18881;SDS011;9573;50.948;11.600;2022-12-10T07:41:22;47.20;;;15.63;;
18881;SDS011;9573;50.948;11.600;2022-12-10T07:43:50;46.37;;;16.17;;
18881;SDS011;9573;50.948;11.600;2022-12-10T07:46:18;44.03;;;15.23;;
18881;SDS011;9573;50.948;11.600;2022-12-10T07:48:48;45.90;;;15.40;;
18881;SDS011;9573;50.948;11.600;2022-12-10T07:51:17;46.93;;;16.97;;
18881;SDS011;9573;50.948;11.600;2022-12-10T07:53:50;43.43;;;15.17;;
18881;SDS011;9573;50.948;11.600;2022-12-10T07:56:19;42.13;;;15.17;;
18881;SDS011;9573;50.948;11.600;2022-12-10T07:58:47;39.70;;;13.40;;
18881;SDS011;9573;50.948;11.600;2022-12-10T08:01:15;39.63;;;13.97;;
18881;SDS011;9573;50.948;11.600;2022-12-10T08:03:47;42.90;;;14.30;;
18881;SDS011;9573;50.948;11.600;2022-12-10T08:06:15;40.47;;;13.60;;
18881;SDS011;9573;50.948;11.600;2022-12-10T08:08:46;41.47;;;13.73;;
18881;SDS011;9573;50.948;11.600;2022-12-10T08:11:16;42.33;;;14.23;;
18881;SDS011;9573;50.948;11.600;2022-12-10T08:13:45;38.10;;;12.93;;
18881;SDS011;9573;50.948;11.600;2022-12-10T08:16:15;42.33;;;14.70;;
18881;SDS011;9573;50.948;11.600;2022-12-10T08:18:45;41.33;;;14.43;;
18881;SDS011;9573;50.948;11.600;2022-12-10T08:21:13;45.03;;;15.30;;
18881;SDS011;9573;50.948;11.600;2022-12-10T08:23:44;41.87;;;15.20;;
18881;SDS011;9573;50.948;11.600;2022-12-10T08:26:15;41.47;;;14.60;;
18881;SDS011;9573;50.948;11.600;2022-12-10T08:28:44;44.13;;;14.47;;
18881;SDS011;9573;50.948;11.600;2022-12-10T08:31:12;41.23;;;14.40;;
18881;SDS011;9573;50.948;11.600;2022-12-10T08:33:41;41.80;;;14.57;;
18881;SDS011;9573;50.948;11.600;2022-12-10T08:36:10;43.73;;;15.63;;
18881;SDS011;9573;50.948;11.600;2022-12-10T08:38:38;42.40;;;15.10;;
18881;SDS011;9573;50.948;11.600;2022-12-10T08:41:07;41.90;;;14.47;;
18881;SDS011;9573;50.948;11.600;2022-12-10T08:43:36;41.40;;;14.57;;
18881;SDS011;9573;50.948;11.600;2022-12-10T08:46:07;38.27;;;13.67;;
18881;SDS011;9573;50.948;11.600;2022-12-10T08:48:35;40.30;;;14.57;;
18881;SDS011;9573;50.948;11.600;2022-12-10T08:51:04;42.43;;;14.27;;
18881;SDS011;9573;50.948;11.600;2022-12-10T08:53:35;40.97;;;14.40;;
18881;SDS011;9573;50.948;11.600;2022-12-10T08:56:02;42.00;;;15.07;;
18881;SDS011;9573;50.948;11.600;2022-12-10T08:58:33;44.37;;;15.53;;
18881;SDS011;9573;50.948;11.600;2022-12-10T09:01:05;43.20;;;15.00;;
18881;SDS011;9573;50.948;11.600;2022-12-10T09:03:34;46.97;;;15.80;;
18881;SDS011;9573;50.948;11.600;2022-12-10T09:06:05;43.77;;;13.87;;
18881;SDS011;9573;50.948;11.600;2022-12-10T09:08:35;46.27;;;15.40;;
18881;SDS011;9573;50.948;11.600;2022-12-10T09:11:07;46.87;;;15.07;;
18881;SDS011;9573;50.948;11.600;2022-12-10T09:13:36;45.13;;;15.23;;
18881;SDS011;9573;50.948;11.600;2022-12-10T09:16:08;41.00;;;13.87;;
18881;SDS011;9573;50.948;11.600;2022-12-10T09:18:35;43.37;;;13.87;;
18881;SDS011;9573;50.948;11.600;2022-12-10T09:21:06;46.90;;;15.07;;
18881;SDS011;9573;50.948;11.600;2022-12-10T09:23:37;40.47;;;12.67;;
18881;SDS011;9573;50.948;11.600;2022-12-10T09:26:08;42.43;;;14.90;;
18881;SDS011;9573;50.948;11.600;2022-12-10T09:28:37;40.90;;;13.67;;
18881;SDS011;9573;50.948;11.600;2022-12-10T09:31:05;39.10;;;12.37;;
18881;SDS011;9573;50.948;11.600;2022-12-10T09:33:35;38.17;;;13.33;;
18881;SDS011;9573;50.948;11.600;2022-12-10T09:36:03;38.63;;;12.30;;
18881;SDS011;9573;50.948;11.600;2022-12-10T09:38:34;38.10;;;12.90;;
18881;SDS011;9573;50.948;11.600;2022-12-10T09:41:04;38.57;;;13.57;;
18881;SDS011;9573;50.948;11.600;2022-12-10T09:43:59;37.80;;;12.47;;
18881;SDS011;9573;50.948;11.600;2022-12-10T09:46:38;39.23;;;12.93;;
18881;SDS011;9573;50.948;11.600;2022-12-10T09:49:15;43.23;;;13.77;;
18881;SDS011;9573;50.948;11.600;2022-12-10T09:51:54;40.63;;;12.97;;
18881;SDS011;9573;50.948;11.600;2022-12-10T09:54:27;37.77;;;12.43;;
18881;SDS011;9573;50.948;11.600;2022-12-10T09:56:57;40.93;;;14.50;;
18881;SDS011;9573;50.948;11.600;2022-12-10T09:59:27;40.63;;;14.00;;
18881;SDS011;9573;50.948;11.600;2022-12-10T10:02:02;36.77;;;12.63;;
18881;SDS011;9573;50.948;11.600;2022-12-10T10:04:45;40.40;;;13.50;;
18881;SDS011;9573;50.948;11.600;2022-12-10T10:07:16;43.13;;;14.27;;
18881;SDS011;9573;50.948;11.600;2022-12-10T10:09:47;42.60;;;13.43;;
18881;SDS011;9573;50.948;11.600;2022-12-10T10:12:15;38.63;;;13.67;;
18881;SDS011;9573;50.948;11.600;2022-12-10T10:14:44;39.83;;;14.17;;
18881;SDS011;9573;50.948;11.600;2022-12-10T10:17:18;40.93;;;13.97;;
18881;SDS011;9573;50.948;11.600;2022-12-10T10:19:54;39.77;;;13.53;;
18881;SDS011;9573;50.948;11.600;2022-12-10T10:22:24;38.10;;;13.33;;
18881;SDS011;9573;50.948;11.600;2022-12-10T10:24:55;41.87;;;13.80;;
18881;SDS011;9573;50.948;11.600;2022-12-10T10:27:30;39.60;;;13.60;;
18881;SDS011;9573;50.948;11.600;2022-12-10T10:29:59;37.53;;;12.27;;
18881;SDS011;9573;50.948;11.600;2022-12-10T10:32:45;38.90;;;13.07;;
18881;SDS011;9573;50.948;11.600;2022-12-10T10:35:25;33.67;;;11.67;;
18881;SDS011;9573;50.948;11.600;2022-12-10T10:37:59;34.10;;;11.53;;
18881;SDS011;9573;50.948;11.600;2022-12-10T10:40:30;31.63;;;10.93;;
18881;SDS011;9573;50.948;11.600;2022-12-10T10:43:02;38.93;;;13.10;;
18881;SDS011;9573;50.948;11.600;2022-12-10T10:45:33;38.80;;;13.33;;
18881;SDS011;9573;50.948;11.600;2022-12-10T10:48:13;39.10;;;12.17;;
18881;SDS011;9573;50.948;11.600;2022-12-10T10:50:43;40.33;;;12.77;;
18881;SDS011;9573;50.948;11.600;2022-12-10T10:53:23;34.90;;;10.93;;
18881;SDS011;9573;50.948;11.600;2022-12-10T10:56:00;30.97;;;9.50;;
18881;SDS011;9573;50.948;11.600;2022-12-10T10:58:33;31.73;;;10.40;;
18881;SDS011;9573;50.948;11.600;2022-12-10T11:01:07;30.93;;;9.67;;
18881;SDS011;9573;50.948;11.600;2022-12-10T11:03:48;33.33;;;10.27;;
18881;SDS011;9573;50.948;11.600;2022-12-10T11:06:29;33.17;;;10.70;;
18881;SDS011;9573;50.948;11.600;2022-12-10T11:08:57;33.93;;;10.60;;
18881;SDS011;9573;50.948;11.600;2022-12-10T11:11:39;29.30;;;9.60;;
18881;SDS011;9573;50.948;11.600;2022-12-10T11:14:14;30.43;;;9.77;;
18881;SDS011;9573;50.948;11.600;2022-12-10T11:16:59;30.60;;;10.07;;
18881;SDS011;9573;50.948;11.600;2022-12-10T11:19:45;31.37;;;10.00;;
18881;SDS011;9573;50.948;11.600;2022-12-10T11:22:27;31.13;;;10.67;;
18881;SDS011;9573;50.948;11.600;2022-12-10T11:24:59;29.13;;;9.50;;
18881;SDS011;9573;50.948;11.600;2022-12-10T11:27:36;30.47;;;10.30;;
18881;SDS011;9573;50.948;11.600;2022-12-10T11:30:16;30.27;;;10.27;;
18881;SDS011;9573;50.948;11.600;2022-12-10T11:33:01;31.43;;;10.47;;
18881;SDS011;9573;50.948;11.600;2022-12-10T11:35:47;32.03;;;11.50;;
18881;SDS011;9573;50.948;11.600;2022-12-10T11:38:28;36.27;;;12.50;;
18881;SDS011;9573;50.948;11.600;2022-12-10T11:41:04;39.30;;;14.23;;
18881;SDS011;9573;50.948;11.600;2022-12-10T11:43:47;38.30;;;14.80;;
18881;SDS011;9573;50.948;11.600;2022-12-10T11:46:41;42.83;;;15.37;;
18881;SDS011;9573;50.948;11.600;2022-12-10T11:49:27;45.97;;;16.07;;
18881;SDS011;9573;50.948;11.600;2022-12-10T11:52:09;47.17;;;16.43;;
18881;SDS011;9573;50.948;11.600;2022-12-10T11:54:52;49.00;;;16.00;;
18881;SDS011;9573;50.948;11.600;2022-12-10T11:57:30;45.30;;;15.73;;
18881;SDS011;9573;50.948;11.600;2022-12-10T12:00:20;50.33;;;17.23;;
18881;SDS011;9573;50.948;11.600;2022-12-10T12:03:03;45.13;;;15.53;;
18881;SDS011;9573;50.948;11.600;2022-12-10T12:05:59;42.30;;;14.07;;
18881;SDS011;9573;50.948;11.600;2022-12-10T12:08:48;48.07;;;16.67;;
18881;SDS011;9573;50.948;11.600;2022-12-10T12:11:32;46.63;;;16.03;;
18881;SDS011;9573;50.948;11.600;2022-12-10T12:14:18;46.33;;;15.03;;
18881;SDS011;9573;50.948;11.600;2022-12-10T12:16:55;48.40;;;15.80;;
18881;SDS011;9573;50.948;11.600;2022-12-10T12:19:32;44.90;;;16.40;;
18881;SDS011;9573;50.948;11.600;2022-12-10T12:22:10;48.20;;;15.70;;
18881;SDS011;9573;50.948;11.600;2022-12-10T12:24:45;49.23;;;16.13;;
18881;SDS011;9573;50.948;11.600;2022-12-10T12:27:25;44.30;;;15.37;;
18881;SDS011;9573;50.948;11.600;2022-12-10T12:30:00;46.80;;;16.33;;
18881;SDS011;9573;50.948;11.600;2022-12-10T12:32:40;48.43;;;15.90;;
18881;SDS011;9573;50.948;11.600;2022-12-10T12:35:22;44.07;;;14.70;;
18881;SDS011;9573;50.948;11.600;2022-12-10T12:37:59;46.43;;;15.17;;
18881;SDS011;9573;50.948;11.600;2022-12-10T12:40:35;46.23;;;15.60;;
18881;SDS011;9573;50.948;11.600;2022-12-10T12:43:16;48.00;;;15.67;;
18881;SDS011;9573;50.948;11.600;2022-12-10T12:45:53;44.80;;;14.50;;
18881;SDS011;9573;50.948;11.600;2022-12-10T12:48:26;46.93;;;15.63;;
18881;SDS011;9573;50.948;11.600;2022-12-10T12:51:02;47.77;;;15.43;;
18881;SDS011;9573;50.948;11.600;2022-12-10T12:53:33;43.70;;;14.30;;
18881;SDS011;9573;50.948;11.600;2022-12-10T12:56:06;50.10;;;16.03;;
18881;SDS011;9573;50.948;11.600;2022-12-10T12:58:47;46.13;;;15.57;;
18881;SDS011;9573;50.948;11.600;2022-12-10T13:01:27;45.00;;;13.60;;
18881;SDS011;9573;50.948;11.600;2022-12-10T13:03:59;44.93;;;15.30;;
18881;SDS011;9573;50.948;11.600;2022-12-10T13:06:32;43.37;;;14.17;;
18881;SDS011;9573;50.948;11.600;2022-12-10T13:09:23;45.43;;;15.53;;
18881;SDS011;9573;50.948;11.600;2022-12-10T13:15:00;41.23;;;13.40;;
18881;SDS011;9573;50.948;11.600;2022-12-10T13:20:48;39.20;;;13.40;;
18881;SDS011;9573;50.948;11.600;2022-12-10T13:23:29;44.57;;;14.10;;
18881;SDS011;9573;50.948;11.600;2022-12-10T13:26:22;43.33;;;14.10;;
18881;SDS011;9573;50.948;11.600;2022-12-10T13:28:53;42.63;;;13.80;;
18881;SDS011;9573;50.948;11.600;2022-12-10T13:31:35;44.40;;;14.50;;
18881;SDS011;9573;50.948;11.600;2022-12-10T13:34:05;42.47;;;13.80;;
18881;SDS011;9573;50.948;11.600;2022-12-10T13:37:06;40.83;;;13.07;;
18881;SDS011;9573;50.948;11.600;2022-12-10T13:40:02;39.93;;;14.43;;
18881;SDS011;9573;50.948;11.600;2022-12-10T13:42:42;40.00;;;13.83;;
18881;SDS011;9573;50.948;11.600;2022-12-10T13:45:31;41.07;;;12.70;;
18881;SDS011;9573;50.948;11.600;2022-12-10T13:48:22;38.40;;;13.33;;
18881;SDS011;9573;50.948;11.600;2022-12-10T13:54:00;39.03;;;13.10;;
18881;SDS011;9573;50.948;11.600;2022-12-10T13:56:39;39.77;;;13.63;;
18881;SDS011;9573;50.948;11.600;2022-12-10T13:59:16;41.70;;;13.20;;
18881;SDS011;9573;50.948;11.600;2022-12-10T14:01:59;39.00;;;13.13;;
18881;SDS011;9573;50.948;11.600;2022-12-10T14:04:51;38.50;;;13.03;;
18881;SDS011;9573;50.948;11.600;2022-12-10T14:07:55;42.27;;;14.37;;
18881;SDS011;9573;50.948;11.600;2022-12-10T14:10:29;41.33;;;12.87;;
18881;SDS011;9573;50.948;11.600;2022-12-10T14:12:59;41.97;;;13.93;;
18881;SDS011;9573;50.948;11.600;2022-12-10T14:15:30;40.10;;;13.93;;
18881;SDS011;9573;50.948;11.600;2022-12-10T14:18:04;42.33;;;13.40;;
18881;SDS011;9573;50.948;11.600;2022-12-10T14:20:39;44.43;;;14.67;;
18881;SDS011;9573;50.948;11.600;2022-12-10T14:23:20;43.93;;;14.53;;
18881;SDS011;9573;50.948;11.600;2022-12-10T14:26:05;39.10;;;13.40;;
18881;SDS011;9573;50.948;11.600;2022-12-10T14:28:40;43.80;;;14.87;;
18881;SDS011;9573;50.948;11.600;2022-12-10T14:31:13;43.50;;;14.80;;
18881;SDS011;9573;50.948;11.600;2022-12-10T14:33:45;42.57;;;14.37;;
18881;SDS011;9573;50.948;11.600;2022-12-10T14:36:16;43.80;;;14.13;;
18881;SDS011;9573;50.948;11.600;2022-12-10T14:38:51;41.53;;;14.47;;
18881;SDS011;9573;50.948;11.600;2022-12-10T14:41:19;43.40;;;14.77;;
18881;SDS011;9573;50.948;11.600;2022-12-10T14:43:49;42.23;;;14.47;;
18881;SDS011;9573;50.948;11.600;2022-12-10T14:46:18;43.70;;;14.80;;
18881;SDS011;9573;50.948;11.600;2022-12-10T14:48:50;42.27;;;14.70;;
18881;SDS011;9573;50.948;11.600;2022-12-10T14:51:20;44.67;;;14.77;;
18881;SDS011;9573;50.948;11.600;2022-12-10T14:53:50;43.83;;;15.27;;
18881;SDS011;9573;50.948;11.600;2022-12-10T14:56:21;42.03;;;13.83;;
18881;SDS011;9573;50.948;11.600;2022-12-10T14:58:55;41.43;;;13.63;;
18881;SDS011;9573;50.948;11.600;2022-12-10T15:01:30;43.93;;;13.87;;
18881;SDS011;9573;50.948;11.600;2022-12-10T15:04:03;40.60;;;13.73;;
18881;SDS011;9573;50.948;11.600;2022-12-10T15:06:33;37.00;;;12.47;;
18881;SDS011;9573;50.948;11.600;2022-12-10T15:09:02;39.23;;;12.67;;
18881;SDS011;9573;50.948;11.600;2022-12-10T15:11:31;37.07;;;12.33;;
18881;SDS011;9573;50.948;11.600;2022-12-10T15:13:59;39.10;;;13.03;;
18881;SDS011;9573;50.948;11.600;2022-12-10T15:16:29;37.27;;;12.50;;
18881;SDS011;9573;50.948;11.600;2022-12-10T15:19:09;37.47;;;13.07;;
18881;SDS011;9573;50.948;11.600;2022-12-10T15:21:45;40.10;;;13.67;;
18881;SDS011;9573;50.948;11.600;2022-12-10T15:24:16;34.83;;;11.43;;
18881;SDS011;9573;50.948;11.600;2022-12-10T15:26:47;37.10;;;11.70;;
18881;SDS011;9573;50.948;11.600;2022-12-10T15:29:32;33.57;;;11.73;;
18881;SDS011;9573;50.948;11.600;2022-12-10T15:32:03;36.00;;;11.27;;
18881;SDS011;9573;50.948;11.600;2022-12-10T15:34:42;37.00;;;11.47;;
18881;SDS011;9573;50.948;11.600;2022-12-10T15:37:17;40.40;;;13.20;;
18881;SDS011;9573;50.948;11.600;2022-12-10T15:39:49;39.97;;;12.93;;
18881;SDS011;9573;50.948;11.600;2022-12-10T15:42:31;38.60;;;12.83;;
18881;SDS011;9573;50.948;11.600;2022-12-10T15:45:12;40.13;;;13.30;;
18881;SDS011;9573;50.948;11.600;2022-12-10T15:47:47;40.57;;;14.07;;
18881;SDS011;9573;50.948;11.600;2022-12-10T15:50:15;37.67;;;12.83;;
18881;SDS011;9573;50.948;11.600;2022-12-10T15:52:43;46.63;;;15.50;;
18881;SDS011;9573;50.948;11.600;2022-12-10T15:55:11;47.17;;;14.90;;
18881;SDS011;9573;50.948;11.600;2022-12-10T15:57:40;46.67;;;15.20;;
18881;SDS011;9573;50.948;11.600;2022-12-10T16:00:14;41.63;;;13.30;;
18881;SDS011;9573;50.948;11.600;2022-12-10T16:02:45;41.80;;;13.90;;
18881;SDS011;9573;50.948;11.600;2022-12-10T16:05:17;44.13;;;14.50;;
18881;SDS011;9573;50.948;11.600;2022-12-10T16:07:51;41.23;;;14.33;;
18881;SDS011;9573;50.948;11.600;2022-12-10T16:10:21;44.90;;;14.37;;
18881;SDS011;9573;50.948;11.600;2022-12-10T16:12:55;45.27;;;14.83;;
18881;SDS011;9573;50.948;11.600;2022-12-10T16:15:27;45.40;;;14.63;;
18881;SDS011;9573;50.948;11.600;2022-12-10T16:18:00;45.70;;;14.53;;
18881;SDS011;9573;50.948;11.600;2022-12-10T16:20:29;41.47;;;14.07;;
18881;SDS011;9573;50.948;11.600;2022-12-10T16:22:58;44.07;;;15.27;;
18881;SDS011;9573;50.948;11.600;2022-12-10T16:25:26;44.80;;;14.67;;
18881;SDS011;9573;50.948;11.600;2022-12-10T16:27:56;41.27;;;14.03;;
18881;SDS011;9573;50.948;11.600;2022-12-10T16:30:24;45.13;;;15.23;;
18881;SDS011;9573;50.948;11.600;2022-12-10T16:32:58;44.77;;;15.43;;
18881;SDS011;9573;50.948;11.600;2022-12-10T16:35:26;42.20;;;13.97;;
18881;SDS011;9573;50.948;11.600;2022-12-10T16:37:54;42.97;;;14.60;;
18881;SDS011;9573;50.948;11.600;2022-12-10T16:40:24;50.40;;;16.67;;
18881;SDS011;9573;50.948;11.600;2022-12-10T16:42:53;45.73;;;15.87;;
18881;SDS011;9573;50.948;11.600;2022-12-10T16:45:24;46.20;;;15.07;;
18881;SDS011;9573;50.948;11.600;2022-12-10T16:47:53;44.93;;;14.77;;
18881;SDS011;9573;50.948;11.600;2022-12-10T16:50:21;46.03;;;14.80;;
18881;SDS011;9573;50.948;11.600;2022-12-10T16:52:52;46.17;;;15.50;;
18881;SDS011;9573;50.948;11.600;2022-12-10T16:55:24;46.63;;;15.53;;
18881;SDS011;9573;50.948;11.600;2022-12-10T16:57:52;42.37;;;14.47;;
18881;SDS011;9573;50.948;11.600;2022-12-10T17:00:21;45.47;;;15.77;;
18881;SDS011;9573;50.948;11.600;2022-12-10T17:02:50;43.93;;;15.83;;
18881;SDS011;9573;50.948;11.600;2022-12-10T17:05:20;42.07;;;13.93;;
18881;SDS011;9573;50.948;11.600;2022-12-10T17:07:56;43.50;;;14.60;;
18881;SDS011;9573;50.948;11.600;2022-12-10T17:10:23;48.63;;;16.23;;
18881;SDS011;9573;50.948;11.600;2022-12-10T17:13:04;46.27;;;16.50;;
18881;SDS011;9573;50.948;11.600;2022-12-10T17:15:31;49.33;;;16.23;;
18881;SDS011;9573;50.948;11.600;2022-12-10T17:18:00;46.77;;;15.47;;
18881;SDS011;9573;50.948;11.600;2022-12-10T17:20:28;47.50;;;16.70;;
18881;SDS011;9573;50.948;11.600;2022-12-10T17:22:56;41.67;;;14.83;;
18881;SDS011;9573;50.948;11.600;2022-12-10T17:25:23;44.33;;;16.07;;
18881;SDS011;9573;50.948;11.600;2022-12-10T17:27:52;44.93;;;15.53;;
18881;SDS011;9573;50.948;11.600;2022-12-10T17:30:21;45.60;;;15.40;;
18881;SDS011;9573;50.948;11.600;2022-12-10T17:32:48;45.63;;;16.77;;
18881;SDS011;9573;50.948;11.600;2022-12-10T17:35:18;40.83;;;14.10;;
18881;SDS011;9573;50.948;11.600;2022-12-10T17:37:45;44.03;;;14.93;;
18881;SDS011;9573;50.948;11.600;2022-12-10T17:40:17;44.57;;;15.43;;
18881;SDS011;9573;50.948;11.600;2022-12-10T17:42:46;38.67;;;13.60;;
18881;SDS011;9573;50.948;11.600;2022-12-10T17:45:14;40.67;;;14.67;;
18881;SDS011;9573;50.948;11.600;2022-12-10T17:47:43;41.93;;;13.60;;
18881;SDS011;9573;50.948;11.600;2022-12-10T17:50:16;39.90;;;14.60;;
18881;SDS011;9573;50.948;11.600;2022-12-10T17:52:50;42.03;;;14.70;;
18881;SDS011;9573;50.948;11.600;2022-12-10T17:55:19;47.63;;;15.80;;
18881;SDS011;9573;50.948;11.600;2022-12-10T17:57:46;42.20;;;14.07;;
18881;SDS011;9573;50.948;11.600;2022-12-10T18:00:14;40.87;;;14.10;;
18881;SDS011;9573;50.948;11.600;2022-12-10T18:02:45;39.50;;;13.27;;
18881;SDS011;9573;50.948;11.600;2022-12-10T18:05:13;43.80;;;14.37;;
18881;SDS011;9573;50.948;11.600;2022-12-10T18:07:41;41.87;;;14.77;;
18881;SDS011;9573;50.948;11.600;2022-12-10T18:10:12;43.13;;;14.53;;
18881;SDS011;9573;50.948;11.600;2022-12-10T18:12:45;45.57;;;15.50;;
18881;SDS011;9573;50.948;11.600;2022-12-10T18:15:13;44.37;;;15.80;;
18881;SDS011;9573;50.948;11.600;2022-12-10T18:17:42;46.50;;;15.50;;
18881;SDS011;9573;50.948;11.600;2022-12-10T18:20:10;40.33;;;14.20;;
18881;SDS011;9573;50.948;11.600;2022-12-10T18:22:48;42.70;;;15.53;;
18881;SDS011;9573;50.948;11.600;2022-12-10T18:25:15;48.77;;;16.27;;
18881;SDS011;9573;50.948;11.600;2022-12-10T18:27:43;47.07;;;17.23;;
18881;SDS011;9573;50.948;11.600;2022-12-10T18:30:12;47.03;;;16.57;;
18881;SDS011;9573;50.948;11.600;2022-12-10T18:32:42;50.67;;;17.23;;
18881;SDS011;9573;50.948;11.600;2022-12-10T18:35:10;52.60;;;18.67;;
18881;SDS011;9573;50.948;11.600;2022-12-10T18:37:37;48.90;;;17.70;;
18881;SDS011;9573;50.948;11.600;2022-12-10T18:40:06;50.60;;;17.13;;
18881;SDS011;9573;50.948;11.600;2022-12-10T18:42:39;54.80;;;17.73;;
18881;SDS011;9573;50.948;11.600;2022-12-10T18:45:08;51.70;;;17.63;;
18881;SDS011;9573;50.948;11.600;2022-12-10T18:47:36;53.20;;;17.23;;
18881;SDS011;9573;50.948;11.600;2022-12-10T18:50:03;50.53;;;17.30;;
18881;SDS011;9573;50.948;11.600;2022-12-10T18:52:42;43.27;;;16.13;;
18881;SDS011;9573;50.948;11.600;2022-12-10T18:55:09;48.37;;;17.07;;
18881;SDS011;9573;50.948;11.600;2022-12-10T18:57:37;49.70;;;17.53;;
18881;SDS011;9573;50.948;11.600;2022-12-10T19:00:05;47.80;;;17.40;;
18881;SDS011;9573;50.948;11.600;2022-12-10T19:02:43;49.83;;;17.20;;
18881;SDS011;9573;50.948;11.600;2022-12-10T19:05:11;50.60;;;18.23;;
18881;SDS011;9573;50.948;11.600;2022-12-10T19:07:39;56.10;;;19.00;;
18881;SDS011;9573;50.948;11.600;2022-12-10T19:10:11;49.33;;;17.90;;
18881;SDS011;9573;50.948;11.600;2022-12-10T19:12:41;49.37;;;16.47;;
18881;SDS011;9573;50.948;11.600;2022-12-10T19:15:09;49.77;;;17.77;;
18881;SDS011;9573;50.948;11.600;2022-12-10T19:17:42;47.63;;;16.50;;
18881;SDS011;9573;50.948;11.600;2022-12-10T19:20:10;45.93;;;15.63;;
18881;SDS011;9573;50.948;11.600;2022-12-10T19:22:41;45.40;;;15.47;;
18881;SDS011;9573;50.948;11.600;2022-12-10T19:25:09;48.73;;;16.93;;
18881;SDS011;9573;50.948;11.600;2022-12-10T19:27:37;46.20;;;15.50;;
18881;SDS011;9573;50.948;11.600;2022-12-10T19:30:05;47.57;;;16.70;;
18881;SDS011;9573;50.948;11.600;2022-12-10T19:32:37;51.73;;;17.47;;
18881;SDS011;9573;50.948;11.600;2022-12-10T19:35:04;49.93;;;17.80;;
18881;SDS011;9573;50.948;11.600;2022-12-10T19:37:32;50.30;;;17.17;;
18881;SDS011;9573;50.948;11.600;2022-12-10T19:40:00;49.40;;;17.70;;
18881;SDS011;9573;50.948;11.600;2022-12-10T19:42:27;53.27;;;19.03;;
18881;SDS011;9573;50.948;11.600;2022-12-10T19:44:55;51.80;;;18.97;;
18881;SDS011;9573;50.948;11.600;2022-12-10T19:47:24;52.07;;;18.13;;
18881;SDS011;9573;50.948;11.600;2022-12-10T19:49:52;53.13;;;18.97;;
18881;SDS011;9573;50.948;11.600;2022-12-10T19:52:20;55.30;;;19.43;;
18881;SDS011;9573;50.948;11.600;2022-12-10T19:54:47;49.97;;;17.70;;
18881;SDS011;9573;50.948;11.600;2022-12-10T19:57:14;50.73;;;18.13;;
18881;SDS011;9573;50.948;11.600;2022-12-10T19:59:41;52.20;;;19.00;;
18881;SDS011;9573;50.948;11.600;2022-12-10T20:02:08;52.67;;;18.93;;
18881;SDS011;9573;50.948;11.600;2022-12-10T20:04:36;54.17;;;18.87;;
18881;SDS011;9573;50.948;11.600;2022-12-10T20:07:04;48.00;;;17.33;;
18881;SDS011;9573;50.948;11.600;2022-12-10T20:09:31;52.03;;;18.60;;
18881;SDS011;9573;50.948;11.600;2022-12-10T20:11:58;50.63;;;17.60;;
18881;SDS011;9573;50.948;11.600;2022-12-10T20:14:26;50.13;;;16.83;;
18881;SDS011;9573;50.948;11.600;2022-12-10T20:16:53;53.00;;;17.27;;
18881;SDS011;9573;50.948;11.600;2022-12-10T20:19:21;56.40;;;18.03;;
18881;SDS011;9573;50.948;11.600;2022-12-10T20:21:49;48.67;;;16.73;;